createdAt,value
2018-05-16T00:00:21.726Z,26.25
2018-05-16T00:01:24.995Z,26.20
2018-05-16T00:02:27.486Z,26.02
2018-05-16T00:03:30.720Z,26.50
2018-05-16T00:04:33.966Z,26.83
2018-05-16T00:05:37.242Z,27.23
2018-05-16T00:06:39.855Z,27.17
2018-05-16T00:07:43.104Z,28.05
2018-05-16T00:08:45.575Z,26.70
2018-05-16T00:09:48.052Z,27.85
2018-05-16T00:10:50.531Z,27.60
2018-05-16T00:11:53.004Z,26.80
2018-05-16T00:12:55.476Z,26.65
2018-05-16T00:13:57.963Z,28.83
2018-05-16T00:15:00.441Z,26.05
2018-05-16T00:16:03.003Z,28.02
2018-05-16T00:17:05.476Z,26.65
2018-05-16T00:18:07.948Z,28.08
2018-05-16T00:19:10.419Z,26.85
2018-05-16T00:20:12.879Z,27.17
2018-05-16T00:21:16.107Z,27.60
2018-05-16T00:22:18.608Z,27.52
2018-05-16T00:23:21.092Z,28.73
2018-05-16T00:24:23.556Z,29.92
2018-05-16T00:25:26.046Z,28.67
2018-05-16T00:26:28.534Z,28.05
2018-05-16T00:27:31.029Z,29.10
2018-05-16T00:28:33.495Z,28.27
2018-05-16T00:29:36.811Z,27.73
2018-05-16T00:30:39.416Z,29.45
2018-05-16T00:31:41.891Z,29.52
2018-05-16T00:32:45.164Z,29.90
2018-05-16T00:33:47.636Z,29.25
2018-05-16T00:34:50.117Z,30.95
2018-05-16T00:35:52.580Z,29.73
2018-05-16T00:36:55.188Z,30.75
2018-05-16T00:37:57.681Z,29.25
2018-05-16T00:39:00.185Z,30.23
2018-05-16T00:40:02.825Z,31.77
2018-05-16T00:41:05.361Z,30.95
2018-05-16T00:42:08.604Z,31.42
2018-05-16T00:43:12.000Z,30.23
2018-05-16T00:44:14.464Z,33.08
2018-05-16T00:45:17.713Z,31.52
2018-05-16T00:46:20.622Z,32.83
2018-05-16T00:47:24.642Z,32.55
2018-05-16T00:48:27.149Z,32.83
2018-05-16T00:49:29.629Z,31.05
2018-05-16T00:50:32.092Z,31.48
2018-05-16T00:51:34.616Z,31.83
2018-05-16T00:52:37.104Z,32.92
2018-05-16T00:53:39.669Z,31.85
2018-05-16T00:54:42.177Z,31.67
2018-05-16T00:55:45.406Z,32.90
2018-05-16T00:56:48.652Z,31.37
2018-05-16T00:57:51.127Z,31.95
2018-05-16T00:58:53.596Z,32.65
2018-05-16T00:59:56.099Z,32.20
2018-05-16T01:00:58.624Z,31.90
2018-05-16T01:02:01.097Z,33.78
2018-05-16T01:03:03.596Z,32.65
2018-05-16T01:04:06.040Z,33.60
2018-05-16T01:05:09.288Z,32.95
2018-05-16T01:06:12.523Z,33.22
2018-05-16T01:07:15.753Z,34.25
2018-05-16T01:08:19.105Z,34.95
2018-05-16T01:09:22.339Z,33.72
2018-05-16T01:10:25.743Z,34.70
2018-05-16T01:11:28.196Z,33.35
2018-05-16T01:12:30.683Z,34.15
2018-05-16T01:13:33.184Z,33.15
2018-05-16T01:14:35.656Z,35.38
2018-05-16T01:15:38.123Z,35.40
2018-05-16T01:16:41.391Z,35.45
2018-05-16T01:17:43.899Z,35.60
2018-05-16T01:18:46.903Z,35.50
2018-05-16T01:19:50.158Z,33.70
2018-05-16T01:20:53.372Z,35.47
2018-05-16T01:21:55.850Z,36.33
2018-05-16T01:22:59.081Z,37.58
2018-05-16T01:24:02.320Z,36.22
2018-05-16T01:25:05.554Z,36.35
2018-05-16T01:26:08.797Z,36.25
2018-05-16T01:27:12.031Z,35.05
2018-05-16T01:28:14.516Z,36.85
2018-05-16T01:29:16.988Z,37.38
2018-05-16T01:30:20.224Z,36.03
2018-05-16T01:31:22.708Z,35.50
2018-05-16T01:32:25.661Z,34.38
2018-05-16T01:33:28.138Z,35.22
2018-05-16T01:34:30.639Z,36.00
2018-05-16T01:35:33.885Z,35.67
2018-05-16T01:36:37.128Z,36.22
2018-05-16T01:37:40.387Z,37.15
2018-05-16T01:38:42.870Z,37.10
2018-05-16T01:39:45.345Z,36.92
2018-05-16T01:40:47.821Z,35.45
2018-05-16T01:41:50.399Z,36.88
2018-05-16T01:42:52.884Z,34.38
2018-05-16T01:43:56.121Z,38.55
2018-05-16T01:44:58.688Z,37.58
2018-05-16T01:46:01.158Z,38.20
2018-05-16T01:47:03.638Z,37.50
2018-05-16T01:48:06.115Z,39.20
2018-05-16T01:49:19.481Z,36.55
2018-05-16T01:50:21.941Z,39.15
2018-05-16T01:51:25.183Z,38.45
2018-05-16T01:52:28.418Z,38.83
2018-05-16T01:53:30.892Z,38.67
2018-05-16T01:54:33.365Z,40.30
2018-05-16T01:55:36.605Z,43.20
2018-05-16T01:56:39.253Z,43.00
2018-05-16T01:57:42.487Z,40.25
2018-05-16T01:58:46.293Z,41.35
2018-05-16T01:59:48.756Z,42.90
2018-05-16T02:00:51.979Z,40.83
2018-05-16T02:01:55.261Z,41.40
2018-05-16T02:02:58.497Z,41.22
2018-05-16T02:04:01.741Z,42.03
2018-05-16T02:05:04.967Z,43.65
2018-05-16T02:06:08.240Z,42.72
2018-05-16T02:07:10.718Z,41.88
2018-05-16T02:08:14.031Z,44.20
2018-05-16T02:09:16.527Z,42.22
2018-05-16T02:10:19.064Z,44.03
2018-05-16T02:11:21.540Z,52.78
2018-05-16T02:12:24.228Z,44.20
2018-05-16T02:13:26.763Z,45.33
2018-05-16T02:14:29.261Z,44.08
2018-05-16T02:15:31.844Z,44.65
2018-05-16T02:16:34.529Z,43.72
2018-05-16T02:17:37.092Z,44.15
2018-05-16T02:18:39.595Z,44.15
2018-05-16T02:19:42.092Z,45.97
2018-05-16T02:20:44.624Z,45.15
2018-05-16T02:21:47.165Z,48.67
2018-05-16T02:22:49.629Z,49.53
2018-05-16T02:23:52.208Z,49.45
2018-05-16T02:24:54.720Z,52.05
2018-05-16T02:25:57.229Z,49.10
2018-05-16T02:27:00.472Z,49.70
2018-05-16T02:28:02.964Z,49.22
2018-05-16T02:29:05.460Z,52.30
2018-05-16T02:30:08.017Z,85.85
2018-05-16T02:31:10.550Z,50.53
2018-05-16T02:32:13.028Z,48.15
2018-05-16T02:33:15.529Z,47.03
2018-05-16T02:34:18.794Z,50.85
2018-05-16T02:35:21.296Z,46.22
2018-05-16T02:36:24.720Z,72.10
2018-05-16T02:37:27.253Z,48.75
2018-05-16T02:38:29.716Z,48.28
2018-05-16T02:39:32.220Z,48.45
2018-05-16T02:40:35.499Z,47.33
2018-05-16T02:41:37.981Z,46.83
2018-05-16T02:42:41.240Z,50.50
2018-05-16T02:43:43.732Z,52.13
2018-05-16T02:44:47.736Z,51.05
2018-05-16T02:45:50.278Z,49.05
2018-05-16T02:46:53.538Z,49.03
2018-05-16T02:47:56.232Z,48.05
2018-05-16T02:48:59.589Z,49.10
2018-05-16T02:50:02.136Z,49.40
2018-05-16T02:51:04.660Z,49.53
2018-05-16T02:52:07.132Z,51.00
2018-05-16T02:53:10.374Z,48.63
2018-05-16T02:54:13.638Z,49.72
2018-05-16T02:55:16.181Z,49.53
2018-05-16T02:56:18.689Z,51.80
2018-05-16T02:57:21.940Z,49.42
2018-05-16T02:58:24.500Z,48.53
2018-05-16T02:59:26.992Z,48.15
2018-05-16T03:00:29.628Z,47.62
2018-05-16T03:01:32.157Z,51.90
2018-05-16T03:02:34.658Z,51.05
2018-05-16T03:03:37.909Z,48.47
2018-05-16T03:04:40.653Z,50.53
2018-05-16T03:05:43.140Z,46.65
2018-05-16T03:06:46.464Z,46.65
2018-05-16T03:07:50.394Z,46.05
2018-05-16T03:08:52.935Z,45.90
2018-05-16T03:09:55.417Z,45.05
2018-05-16T03:10:57.975Z,45.03
2018-05-16T03:12:00.458Z,44.33
2018-05-16T03:13:03.722Z,45.28
2018-05-16T03:14:06.335Z,45.08
2018-05-16T03:15:09.565Z,45.85
2018-05-16T03:16:12.803Z,44.97
2018-05-16T03:17:16.057Z,47.53
2018-05-16T03:18:18.516Z,43.28
2018-05-16T03:19:21.020Z,46.20
2018-05-16T03:20:23.535Z,47.62
2018-05-16T03:21:26.045Z,49.78
2018-05-16T03:22:28.559Z,49.08
2018-05-16T03:23:31.077Z,47.65
2018-05-16T03:24:33.546Z,46.92
2018-05-16T03:25:36.089Z,48.25
2018-05-16T03:26:38.572Z,45.72
2018-05-16T03:27:41.833Z,46.40
2018-05-16T03:28:44.467Z,50.45
2018-05-16T03:29:46.944Z,50.00
2018-05-16T03:30:49.437Z,47.05
2018-05-16T03:31:51.955Z,52.78
2018-05-16T03:32:54.443Z,47.70
2018-05-16T03:33:57.733Z,46.65
2018-05-16T03:35:00.211Z,48.35
2018-05-16T03:36:03.477Z,49.03
2018-05-16T03:37:05.967Z,46.72
2018-05-16T03:38:08.420Z,47.47
2018-05-16T03:39:12.622Z,46.63
2018-05-16T03:40:15.089Z,48.53
2018-05-16T03:41:18.356Z,48.10
2018-05-16T03:42:21.153Z,48.42
2018-05-16T03:43:23.610Z,45.22
2018-05-16T03:44:26.144Z,45.42
2018-05-16T03:45:28.642Z,44.85
2018-05-16T03:46:31.248Z,46.35
2018-05-16T03:47:34.066Z,45.72
2018-05-16T03:48:36.528Z,47.55
2018-05-16T03:49:39.836Z,46.70
2018-05-16T03:50:42.431Z,48.25
2018-05-16T03:51:44.945Z,44.33
2018-05-16T03:52:47.580Z,45.08
2018-05-16T03:53:50.097Z,43.75
2018-05-16T03:54:52.590Z,44.05
2018-05-16T03:55:55.069Z,44.08
2018-05-16T03:56:57.552Z,44.10
2018-05-16T04:00:00.062Z,42.85
2018-05-16T04:01:14.480Z,44.97
2018-05-16T04:02:28.735Z,45.33
2018-05-16T04:03:43.184Z,44.65
2018-05-16T04:04:45.708Z,43.63
2018-05-16T04:05:48.172Z,45.28
2018-05-16T04:06:50.664Z,45.10
2018-05-16T04:07:53.128Z,45.90
2018-05-16T04:08:55.600Z,46.97
2018-05-16T04:09:58.153Z,44.92
2018-05-16T04:11:01.416Z,46.15
2018-05-16T04:12:04.690Z,44.45
2018-05-16T04:13:07.164Z,46.15
2018-05-16T04:14:10.443Z,45.50
2018-05-16T04:15:12.998Z,45.53
2018-05-16T04:16:15.466Z,43.85
2018-05-16T04:17:18.961Z,43.38
2018-05-16T04:18:21.439Z,43.42
2018-05-16T04:19:24.042Z,45.65
2018-05-16T04:20:26.932Z,44.60
2018-05-16T04:21:29.496Z,43.35
2018-05-16T04:22:32.022Z,43.28
2018-05-16T04:23:34.587Z,45.08
2018-05-16T04:24:37.136Z,47.08
2018-05-16T04:25:39.660Z,43.50
2018-05-16T04:26:42.205Z,42.95
2018-05-16T04:27:44.687Z,44.97
2018-05-16T04:28:47.947Z,45.53
2018-05-16T04:29:50.516Z,44.95
2018-05-16T04:30:53.768Z,42.85
2018-05-16T04:31:56.337Z,45.67
2018-05-16T04:32:58.818Z,43.45
2018-05-16T04:34:01.288Z,43.90
2018-05-16T04:35:03.755Z,43.00
2018-05-16T04:36:06.242Z,41.13
2018-05-16T04:37:09.466Z,44.10
2018-05-16T04:38:12.705Z,43.15
2018-05-16T04:39:15.969Z,43.63
2018-05-16T04:40:18.443Z,44.45
2018-05-16T04:41:20.925Z,42.28
2018-05-16T04:42:23.388Z,43.55
2018-05-16T04:43:25.842Z,43.03
2018-05-16T04:44:29.084Z,41.55
2018-05-16T04:45:32.328Z,40.97
2018-05-16T04:46:35.568Z,42.30
2018-05-16T04:47:38.821Z,41.30
2018-05-16T04:48:42.062Z,42.45
2018-05-16T04:49:45.331Z,41.08
2018-05-16T04:50:47.843Z,41.63
2018-05-16T04:51:50.421Z,40.88
2018-05-16T04:52:52.928Z,39.38
2018-05-16T04:53:55.535Z,41.13
2018-05-16T04:54:58.032Z,41.03
2018-05-16T04:56:01.288Z,41.10
2018-05-16T04:57:03.773Z,38.50
2018-05-16T04:58:06.236Z,38.53
2018-05-16T04:59:08.708Z,38.25
2018-05-16T05:00:11.185Z,36.78
2018-05-16T05:01:14.424Z,37.97
2018-05-16T05:02:17.686Z,38.85
2018-05-16T05:03:20.232Z,38.08
2018-05-16T05:04:22.704Z,36.58
2018-05-16T05:05:25.948Z,36.30
2018-05-16T05:06:29.215Z,38.22
2018-05-16T05:07:31.697Z,36.50
2018-05-16T05:08:34.167Z,39.97
2018-05-16T05:09:36.691Z,36.53
2018-05-16T05:10:39.272Z,38.28
2018-05-16T05:11:41.839Z,37.25
2018-05-16T05:12:44.293Z,38.00
2018-05-16T05:13:46.934Z,36.80
2018-05-16T05:14:49.405Z,35.58
2018-05-16T05:15:52.678Z,36.30
2018-05-16T05:16:55.188Z,36.13
2018-05-16T05:17:57.743Z,35.90
2018-05-16T05:19:00.223Z,36.30
2018-05-16T05:20:03.482Z,37.67
2018-05-16T05:21:06.019Z,34.63
2018-05-16T05:22:08.513Z,36.42
2018-05-16T05:23:12.588Z,34.33
2018-05-16T05:24:15.100Z,35.28
2018-05-16T05:25:18.335Z,36.17
2018-05-16T05:26:21.897Z,34.22
2018-05-16T05:27:25.234Z,36.33
2018-05-16T05:28:27.772Z,36.60
2018-05-16T05:29:30.397Z,34.83
2018-05-16T05:30:33.624Z,35.58
2018-05-16T05:31:36.883Z,35.97
2018-05-16T05:32:40.291Z,36.17
2018-05-16T05:33:42.855Z,34.00
2018-05-16T05:34:45.362Z,36.25
2018-05-16T05:35:47.842Z,34.60
2018-05-16T05:36:50.428Z,34.42
2018-05-16T05:37:52.868Z,35.28
2018-05-16T05:38:55.327Z,34.55
2018-05-16T05:39:57.869Z,33.75
2018-05-16T05:41:00.354Z,35.90
2018-05-16T05:42:02.857Z,38.72
2018-05-16T05:43:06.219Z,33.90
2018-05-16T05:44:08.761Z,48.13
2018-05-16T05:45:11.245Z,35.30
2018-05-16T05:46:14.512Z,35.20
2018-05-16T05:47:17.189Z,35.35
2018-05-16T05:48:20.887Z,34.35
2018-05-16T05:49:23.381Z,34.50
2018-05-16T05:50:26.612Z,33.95
2018-05-16T05:51:29.097Z,33.58
2018-05-16T05:52:31.573Z,32.35
2018-05-16T05:53:34.040Z,34.78
2018-05-16T05:54:36.632Z,34.72
2018-05-16T05:55:39.479Z,35.63
2018-05-16T05:56:42.995Z,36.00
2018-05-16T05:57:45.713Z,35.40
2018-05-16T05:58:48.274Z,33.85
2018-05-16T05:59:50.899Z,38.80
2018-05-16T06:00:53.376Z,53.47
2018-05-16T06:01:55.907Z,33.42
2018-05-16T06:02:58.378Z,34.53
2018-05-16T06:04:01.656Z,33.53
2018-05-16T06:05:04.124Z,32.10
2018-05-16T06:06:06.591Z,33.75
2018-05-16T06:07:09.865Z,31.52
2018-05-16T06:08:12.332Z,32.20
2018-05-16T06:09:14.793Z,32.90
2018-05-16T06:10:17.281Z,31.90
2018-05-16T06:11:19.762Z,39.50
2018-05-16T06:12:22.235Z,33.20
2018-05-16T06:13:26.314Z,30.45
2018-05-16T06:14:29.555Z,33.13
2018-05-16T06:15:32.810Z,59.25
2018-05-16T06:16:35.276Z,43.30
2018-05-16T06:17:37.776Z,31.75
2018-05-16T06:18:40.257Z,33.35
2018-05-16T06:19:42.869Z,30.88
2018-05-16T06:20:45.240Z,32.78
2018-05-16T06:21:47.807Z,31.80
2018-05-16T06:22:50.300Z,34.60
2018-05-16T06:23:52.912Z,34.13
2018-05-16T06:24:55.455Z,33.60
2018-05-16T06:25:57.897Z,39.08
2018-05-16T06:27:00.488Z,34.20
2018-05-16T06:28:03.748Z,33.50
2018-05-16T06:29:06.271Z,32.15
2018-05-16T06:30:08.761Z,30.75
2018-05-16T06:31:12.014Z,32.22
2018-05-16T06:32:15.285Z,31.42
2018-05-16T06:33:17.800Z,32.28
2018-05-16T06:34:20.268Z,31.42
2018-05-16T06:35:22.732Z,35.05
2018-05-16T06:36:25.978Z,31.45
2018-05-16T06:37:29.236Z,37.55
2018-05-16T06:38:31.691Z,33.17
2018-05-16T06:39:34.974Z,31.55
2018-05-16T06:40:37.519Z,42.15
2018-05-16T06:41:39.992Z,50.70
2018-05-16T06:42:42.485Z,46.95
2018-05-16T06:43:44.957Z,31.42
2018-05-16T06:44:47.420Z,46.95
2018-05-16T06:45:50.014Z,41.17
2018-05-16T06:46:52.452Z,39.05
2018-05-16T06:47:54.935Z,30.42
2018-05-16T06:48:57.429Z,30.50
2018-05-16T06:49:59.962Z,31.12
2018-05-16T06:51:02.432Z,29.65
2018-05-16T06:52:04.905Z,31.48
2018-05-16T06:53:07.420Z,31.40
2018-05-16T06:54:10.678Z,27.77
2018-05-16T06:55:13.161Z,29.95
2018-05-16T06:56:15.729Z,41.85
2018-05-16T06:57:18.199Z,42.15
2018-05-16T06:58:20.669Z,32.35
2018-05-16T06:59:23.120Z,30.42
2018-05-16T07:00:26.493Z,29.30
2018-05-16T07:01:29.000Z,29.70
2018-05-16T07:02:31.467Z,29.15
2018-05-16T07:03:34.708Z,28.73
2018-05-16T07:04:37.979Z,30.70
2018-05-16T07:05:40.452Z,28.45
2018-05-16T07:06:42.946Z,33.95
2018-05-16T07:07:45.453Z,28.92
2018-05-16T07:08:48.692Z,35.10
2018-05-16T07:09:51.942Z,29.63
2018-05-16T07:10:54.423Z,29.45
2018-05-16T07:11:56.908Z,28.50
2018-05-16T07:12:59.386Z,29.42
2018-05-16T07:14:02.650Z,28.02
2018-05-16T07:15:05.188Z,28.42
2018-05-16T07:16:07.667Z,27.40
2018-05-16T07:17:10.148Z,45.50
2018-05-16T07:18:12.655Z,27.27
2018-05-16T07:19:15.841Z,37.03
2018-05-16T07:20:18.308Z,27.55
2018-05-16T07:21:21.619Z,45.60
2018-05-16T07:22:24.102Z,52.78
2018-05-16T07:23:26.633Z,28.77
2018-05-16T07:24:29.110Z,27.83
2018-05-16T07:25:31.652Z,27.27
2018-05-16T07:26:35.245Z,26.27
2018-05-16T07:27:37.875Z,26.58
2018-05-16T07:28:40.463Z,27.10
2018-05-16T07:29:43.695Z,26.20
2018-05-16T07:30:46.942Z,25.83
2018-05-16T07:31:50.182Z,26.80
2018-05-16T07:32:53.411Z,27.10
2018-05-16T07:33:56.689Z,63.10
2018-05-16T07:34:59.160Z,28.35
2018-05-16T07:36:01.621Z,26.73
2018-05-16T07:37:04.884Z,27.65
2018-05-16T07:38:07.374Z,26.42
2018-05-16T07:39:10.629Z,25.88
2018-05-16T07:40:14.065Z,27.92
2018-05-16T07:41:17.382Z,26.55
2018-05-16T07:42:19.912Z,26.30
2018-05-16T07:43:22.441Z,28.02
2018-05-16T07:44:25.758Z,27.90
2018-05-16T07:45:28.221Z,27.65
2018-05-16T07:46:30.773Z,27.55
2018-05-16T07:47:33.297Z,26.42
2018-05-16T07:48:36.619Z,26.05
2018-05-16T07:49:39.319Z,30.85
2018-05-16T07:50:41.971Z,31.45
2018-05-16T07:51:45.953Z,33.95
2018-05-16T07:52:49.352Z,77.03
2018-05-16T07:53:51.945Z,33.38
2018-05-16T07:54:54.415Z,25.20
2018-05-16T07:55:56.998Z,26.00
2018-05-16T07:56:59.517Z,26.48
2018-05-16T07:58:02.027Z,26.00
2018-05-16T07:59:05.286Z,29.27
2018-05-16T08:00:07.747Z,25.50
2018-05-16T08:01:10.211Z,29.73
2018-05-16T08:02:12.715Z,29.15
2018-05-16T08:03:15.359Z,32.00
2018-05-16T08:04:17.794Z,24.80
2018-05-16T08:05:20.258Z,23.98
2018-05-16T08:06:22.727Z,26.90
2018-05-16T08:07:25.214Z,31.25
2018-05-16T08:08:27.680Z,25.08
2018-05-16T08:09:30.165Z,27.37
2018-05-16T08:10:32.632Z,25.70
2018-05-16T08:11:35.868Z,31.40
2018-05-16T08:12:38.463Z,33.97
2018-05-16T08:13:40.944Z,28.60
2018-05-16T08:14:44.186Z,26.58
2018-05-16T08:15:47.434Z,39.13
2018-05-16T08:16:49.967Z,24.90
2018-05-16T08:17:52.518Z,24.92
2018-05-16T08:18:55.034Z,22.92
2018-05-16T08:19:57.537Z,21.80
2018-05-16T08:21:00.106Z,23.10
2018-05-16T08:22:02.576Z,22.15
2018-05-16T08:23:05.843Z,21.67
2018-05-16T08:24:08.315Z,31.55
2018-05-16T08:25:10.789Z,21.92
2018-05-16T08:26:13.268Z,22.40
2018-05-16T08:27:15.729Z,21.35
2018-05-16T08:28:18.278Z,21.25
2018-05-16T08:29:20.804Z,21.00
2018-05-16T08:30:23.284Z,20.83
2018-05-16T08:31:25.867Z,21.15
2018-05-16T08:32:28.368Z,21.55
2018-05-16T08:33:30.921Z,21.00
2018-05-16T08:34:33.413Z,20.42
2018-05-16T08:35:36.668Z,20.15
2018-05-16T08:36:39.218Z,21.12
2018-05-16T08:37:41.724Z,21.52
2018-05-16T08:38:44.296Z,21.15
2018-05-16T08:39:47.131Z,20.55
2018-05-16T08:40:49.614Z,21.15
2018-05-16T08:41:52.076Z,23.80
2018-05-16T08:42:54.629Z,23.27
2018-05-16T08:43:57.020Z,20.65
2018-05-16T08:44:59.525Z,19.55
2018-05-16T08:46:02.039Z,20.02
2018-05-16T08:47:05.261Z,20.50
2018-05-16T08:48:08.510Z,30.25
2018-05-16T08:49:11.037Z,21.00
2018-05-16T08:50:13.523Z,20.67
2018-05-16T08:51:15.989Z,19.10
2018-05-16T08:52:18.469Z,31.65
2018-05-16T08:53:20.937Z,20.27
2018-05-16T08:54:23.462Z,22.62
2018-05-16T08:55:26.153Z,18.58
2018-05-16T08:56:28.629Z,18.50
2018-05-16T08:57:31.098Z,18.90
2018-05-16T08:58:33.570Z,18.60
2018-05-16T08:59:36.046Z,18.12
2018-05-16T09:00:38.536Z,18.05
2018-05-16T09:01:41.039Z,18.00
2018-05-16T09:02:43.504Z,17.67
2018-05-16T09:03:45.986Z,17.25
2018-05-16T09:04:48.549Z,15.85
2018-05-16T09:05:51.016Z,15.40
2018-05-16T09:06:54.300Z,28.40
2018-05-16T09:07:56.775Z,14.40
2018-05-16T09:08:59.240Z,14.85
2018-05-16T09:10:01.758Z,14.65
2018-05-16T09:11:04.361Z,14.20
2018-05-16T09:12:06.997Z,14.93
2018-05-16T09:13:09.640Z,13.98
2018-05-16T09:14:12.242Z,15.23
2018-05-16T09:15:15.169Z,13.98
2018-05-16T09:16:18.478Z,13.43
2018-05-16T09:17:21.035Z,13.88
2018-05-16T09:18:23.511Z,14.60
2018-05-16T09:19:26.048Z,13.73
2018-05-16T09:20:28.571Z,13.32
2018-05-16T09:21:31.065Z,13.25
2018-05-16T09:22:34.307Z,13.57
2018-05-16T09:23:37.590Z,13.60
2018-05-16T09:24:40.071Z,13.25
2018-05-16T09:25:43.319Z,13.93
2018-05-16T09:26:46.557Z,13.40
2018-05-16T09:27:49.812Z,13.48
2018-05-16T09:28:52.279Z,18.23
2018-05-16T09:29:54.776Z,13.82
2018-05-16T09:30:57.258Z,13.90
2018-05-16T09:31:59.807Z,13.73
2018-05-16T09:33:03.059Z,16.15
2018-05-16T09:34:05.581Z,15.68
2018-05-16T09:35:08.595Z,13.80
2018-05-16T09:36:11.131Z,12.70
2018-05-16T09:37:14.356Z,13.27
2018-05-16T09:38:16.867Z,16.90
2018-05-16T09:39:19.877Z,11.95
2018-05-16T09:40:22.437Z,11.73
2018-05-16T09:41:24.907Z,13.10
2018-05-16T09:42:27.388Z,18.85
2018-05-16T09:43:29.854Z,11.98
2018-05-16T09:44:32.317Z,13.30
2018-05-16T09:45:34.828Z,12.68
2018-05-16T09:46:37.272Z,12.25
2018-05-16T09:47:39.858Z,12.80
2018-05-16T09:48:42.340Z,13.30
2018-05-16T09:49:44.920Z,14.45
2018-05-16T09:50:47.473Z,12.77
2018-05-16T09:51:49.964Z,13.55
2018-05-16T09:52:52.453Z,11.75
2018-05-16T09:53:54.956Z,12.23
2018-05-16T09:54:57.453Z,12.57
2018-05-16T09:55:59.975Z,11.75
2018-05-16T09:57:02.468Z,13.02
2018-05-16T09:58:05.733Z,12.32
2018-05-16T09:59:08.232Z,14.95
2018-05-16T10:00:11.513Z,12.07
2018-05-16T10:01:13.976Z,12.50
2018-05-16T10:02:16.489Z,14.75
2018-05-16T10:03:18.952Z,11.65
2018-05-16T10:04:21.495Z,11.60
2018-05-16T10:05:24.032Z,11.75
2018-05-16T10:06:27.172Z,12.55
2018-05-16T10:07:29.702Z,12.37
2018-05-16T10:08:32.224Z,12.80
2018-05-16T10:09:34.769Z,12.57
2018-05-16T10:10:37.303Z,12.27
2018-05-16T10:11:39.777Z,12.55
2018-05-16T10:12:42.388Z,11.80
2018-05-16T10:13:44.900Z,12.37
2018-05-16T10:14:48.167Z,17.05
2018-05-16T10:15:51.478Z,12.13
2018-05-16T10:16:54.024Z,12.02
2018-05-16T10:17:56.496Z,10.68
2018-05-16T10:18:59.011Z,10.38
2018-05-16T10:20:01.517Z,9.88
2018-05-16T10:21:04.812Z,10.57
2018-05-16T10:22:07.286Z,10.60
2018-05-16T10:23:10.602Z,11.43
2018-05-16T10:24:14.588Z,10.23
2018-05-16T10:25:17.853Z,10.63
2018-05-16T10:26:20.364Z,10.88
2018-05-16T10:27:23.692Z,11.60
2018-05-16T10:28:26.951Z,10.85
2018-05-16T10:29:29.445Z,10.65
2018-05-16T10:30:32.050Z,10.48
2018-05-16T10:31:34.590Z,9.43
2018-05-16T10:32:37.069Z,8.40
2018-05-16T10:33:39.559Z,8.63
2018-05-16T10:34:42.069Z,8.68
2018-05-16T10:35:45.357Z,8.80
2018-05-16T10:36:47.877Z,8.48
2018-05-16T10:37:51.100Z,9.25
2018-05-16T10:38:54.425Z,8.10
2018-05-16T10:39:57.002Z,8.13
2018-05-16T10:40:59.468Z,8.30
2018-05-16T10:42:01.945Z,8.35
2018-05-16T10:43:04.440Z,8.27
2018-05-16T10:44:06.916Z,8.18
2018-05-16T10:45:09.406Z,9.00
2018-05-16T10:46:12.816Z,8.18
2018-05-16T10:47:15.304Z,7.57
2018-05-16T10:48:17.867Z,8.35
2018-05-16T10:49:20.319Z,8.25
2018-05-16T10:50:23.544Z,8.60
2018-05-16T10:51:26.020Z,8.02
2018-05-16T10:52:28.512Z,7.97
2018-05-16T10:53:31.794Z,8.60
2018-05-16T10:54:34.280Z,8.82
2018-05-16T10:55:37.544Z,9.15
2018-05-16T10:56:40.042Z,8.70
2018-05-16T10:57:42.500Z,8.43
2018-05-16T10:58:44.989Z,8.13
2018-05-16T10:59:47.443Z,7.45
2018-05-16T11:00:49.939Z,7.50
2018-05-16T11:01:52.531Z,7.37
2018-05-16T11:02:55.017Z,9.15
2018-05-16T11:03:58.289Z,11.18
2018-05-16T11:05:00.763Z,10.35
2018-05-16T11:06:04.013Z,7.90
2018-05-16T11:07:07.259Z,8.57
2018-05-16T11:08:10.572Z,8.63
2018-05-16T11:09:13.028Z,8.63
2018-05-16T11:10:16.278Z,11.10
2018-05-16T11:11:19.529Z,9.68
2018-05-16T11:12:22.009Z,7.85
2018-05-16T11:13:24.520Z,8.40
2018-05-16T11:14:27.001Z,7.80
2018-05-16T11:15:29.489Z,8.30
2018-05-16T11:16:31.958Z,8.50
2018-05-16T11:17:34.428Z,7.55
2018-05-16T11:18:36.945Z,9.45
2018-05-16T11:19:39.431Z,8.80
2018-05-16T11:20:41.882Z,7.15
2018-05-16T11:21:44.379Z,7.97
2018-05-16T11:22:47.360Z,7.28
2018-05-16T11:23:49.828Z,7.12
2018-05-16T11:24:53.093Z,7.30
2018-05-16T11:25:55.601Z,12.88
2018-05-16T11:26:58.841Z,7.43
2018-05-16T11:28:01.339Z,8.15
2018-05-16T11:29:03.923Z,10.23
2018-05-16T11:30:06.437Z,10.60
2018-05-16T11:31:08.948Z,8.63
2018-05-16T11:32:11.500Z,9.35
2018-05-16T11:33:13.952Z,8.93
2018-05-16T11:34:16.417Z,8.30
2018-05-16T11:35:19.676Z,9.32
2018-05-16T11:36:22.865Z,8.48
2018-05-16T11:37:25.347Z,8.30
2018-05-16T11:38:27.798Z,8.00
2018-05-16T11:39:30.304Z,7.85
2018-05-16T11:40:32.798Z,8.27
2018-05-16T11:41:36.028Z,10.48
2018-05-16T11:42:39.273Z,8.20
2018-05-16T11:43:42.667Z,8.45
2018-05-16T11:44:45.170Z,8.38
2018-05-16T11:45:47.619Z,9.52
2018-05-16T11:46:50.094Z,8.20
2018-05-16T11:47:53.352Z,11.75
2018-05-16T11:48:56.107Z,16.85
2018-05-16T11:49:58.520Z,13.80
2018-05-16T11:51:01.004Z,19.33
2018-05-16T11:52:03.567Z,18.40
2018-05-16T11:53:06.040Z,10.02
2018-05-16T11:54:08.613Z,28.12
2018-05-16T11:55:11.116Z,10.25
2018-05-16T11:56:14.357Z,24.23
2018-05-16T11:57:16.868Z,14.80
2018-05-16T11:58:19.336Z,30.58
2018-05-16T11:59:21.891Z,23.58
2018-05-16T12:00:25.093Z,16.95
2018-05-16T12:01:28.321Z,11.55
2018-05-16T12:02:31.561Z,13.38
2018-05-16T12:03:34.835Z,11.12
2018-05-16T12:04:37.308Z,9.20
2018-05-16T12:05:39.810Z,17.00
2018-05-16T12:06:42.284Z,9.38
2018-05-16T12:07:45.541Z,15.38
2018-05-16T12:08:48.784Z,16.98
2018-05-16T12:09:51.264Z,8.05
2018-05-16T12:10:53.736Z,8.70
2018-05-16T12:11:56.266Z,8.45
2018-05-16T12:12:59.518Z,8.07
2018-05-16T12:14:02.039Z,8.93
2018-05-16T12:15:04.552Z,11.57
2018-05-16T12:16:07.012Z,9.02
2018-05-16T12:17:09.516Z,11.05
2018-05-16T12:18:11.969Z,9.82
2018-05-16T12:19:14.440Z,8.95
2018-05-16T12:20:17.678Z,10.68
2018-05-16T12:21:20.950Z,8.98
2018-05-16T12:22:23.473Z,8.95
2018-05-16T12:23:26.009Z,8.55
2018-05-16T12:24:28.522Z,9.07
2018-05-16T12:25:31.539Z,7.80
2018-05-16T12:26:34.987Z,8.10
2018-05-16T12:27:38.251Z,7.78
2018-05-16T12:28:40.713Z,8.25
2018-05-16T12:29:43.169Z,8.68
2018-05-16T12:30:45.651Z,14.15
2018-05-16T12:31:48.132Z,7.78
2018-05-16T12:32:51.420Z,10.52
2018-05-16T12:33:54.255Z,7.32
2018-05-16T12:34:56.720Z,6.93
2018-05-16T12:35:59.176Z,6.78
2018-05-16T12:37:01.704Z,7.15
2018-05-16T12:38:04.187Z,7.57
2018-05-16T12:39:07.442Z,7.57
2018-05-16T12:40:11.310Z,8.05
2018-05-16T12:41:14.557Z,7.45
2018-05-16T12:42:17.096Z,7.35
2018-05-16T12:43:19.576Z,8.48
2018-05-16T12:44:22.029Z,7.00
2018-05-16T12:45:24.492Z,7.20
2018-05-16T12:46:27.081Z,7.47
2018-05-16T12:47:29.452Z,7.37
2018-05-16T12:48:31.960Z,6.90
2018-05-16T12:49:34.570Z,6.72
2018-05-16T12:50:37.134Z,7.20
2018-05-16T12:51:39.635Z,7.45
2018-05-16T12:52:42.118Z,7.32
2018-05-16T12:53:45.366Z,6.90
2018-05-16T12:54:48.590Z,7.07
2018-05-16T12:55:51.204Z,6.60
2018-05-16T12:56:53.709Z,6.90
2018-05-16T12:57:56.195Z,9.13
2018-05-16T12:58:58.680Z,6.80
2018-05-16T13:00:01.257Z,7.53
2018-05-16T13:01:03.740Z,7.62
2018-05-16T13:02:06.208Z,7.28
2018-05-16T13:03:08.691Z,7.62
2018-05-16T13:04:11.146Z,8.90
2018-05-16T13:05:13.648Z,8.00
2018-05-16T13:06:16.201Z,7.80
2018-05-16T13:07:18.696Z,8.30
2018-05-16T13:08:21.189Z,6.95
2018-05-16T13:09:25.306Z,7.40
2018-05-16T13:10:27.860Z,8.40
2018-05-16T13:11:30.328Z,7.60
2018-05-16T13:12:32.799Z,7.20
2018-05-16T13:13:35.336Z,7.55
2018-05-16T13:14:37.824Z,6.70
2018-05-16T13:15:41.061Z,6.85
2018-05-16T13:16:43.877Z,7.55
2018-05-16T13:17:46.367Z,6.62
2018-05-16T13:18:49.056Z,6.30
2018-05-16T13:19:52.339Z,6.70
2018-05-16T13:20:54.824Z,6.95
2018-05-16T13:21:57.390Z,6.55
2018-05-16T13:22:59.895Z,6.95
2018-05-16T13:24:02.416Z,6.35
2018-05-16T13:25:04.958Z,7.20
2018-05-16T13:26:07.417Z,7.35
2018-05-16T13:27:09.959Z,6.70
2018-05-16T13:28:12.527Z,6.60
2018-05-16T13:29:15.014Z,8.00
2018-05-16T13:30:17.480Z,7.30
2018-05-16T13:31:20.511Z,6.68
2018-05-16T13:32:22.974Z,6.45
2018-05-16T13:33:25.449Z,6.30
2018-05-16T13:34:28.685Z,7.22
2018-05-16T13:35:32.081Z,5.70